Betancuria — EAMH — position and weather

sailwx.info

Track history (hours):
 
Tides and Currents Weather Stations Pressure Air Temp Water Temp Dewpoint Dewpoint Depression Visibility Wind Speed Wind Dir Waves Ship Positions

Betancuria

Last reported at 2017-Dec-14 00:59 UTC. Time now 2017-Dec-18 01:25 UTC.
Position N 48°54' W 005°14'.

Length 141 m; draft 4.7 m.

Type: Ship. MMSI: 224471000.

Date/timePositionNaut miles runAvg speedWind from/ knotsBaromVisibWave heightAir tempDewpointWater temp
2017-Dec-14 00:59N 48°54' W 005°14'510.3
2017-Dec-14 00:29N 48°52' W 005°21'510.1
2017-Dec-14 00:00N 48°49' W 005°27'5 9.7
2017-Dec-13 23:30N 48°46' W 005°33'  
2017-Dec-10 11:50N 39°19' W 009°49'3 9.4
2017-Dec-10 11:29N 39°16' W 009°49'4 9.5
2017-Dec-10 11:00N 39°11' W 009°49'5 9.8
2017-Dec-10 10:30N 39°06' W 009°50'5 9.6
2017-Dec-10 10:00N 39°01' W 009°50'5 9.6
2017-Dec-10 09:30N 38°57' W 009°50'5 9.6
2017-Dec-10 09:00N 38°52' W 009°50'5 9.9
2017-Dec-10 08:30N 38°47' W 009°50'5 9.7
2017-Dec-10 08:00N 38°42' W 009°50'5 9.8
2017-Dec-10 07:30N 38°37' W 009°48'5 9.8
2017-Dec-10 07:00N 38°32' W 009°47'5 9.6
2017-Dec-10 06:30N 38°28' W 009°45'5 9.6
2017-Dec-10 06:00N 38°23' W 009°44'5 9.8
2017-Dec-10 05:30N 38°18' W 009°43'5 9.9
2017-Dec-10 04:59N 38°13' W 009°42'7 9.7
2017-Dec-10 04:17N 38°06' W 009°40'  
2017-Dec-04 10:30N 36°45' E 014°21'5 9.1
2017-Dec-04 10:00N 36°43' E 014°27'5 9.7
2017-Dec-04 09:29N 36°41' E 014°32'  
Track history (hours):
 
Tides and Currents Weather Stations Pressure Air Temp Water Temp Dewpoint Dewpoint Depression Visibility Wind Speed Wind Dir Waves Ship Positions

Betancuria

Last reported at 2017-Dec-14 00:59 UTC. Time now 2017-Dec-18 01:25 UTC.
Position N 48°54' W 005°14'.

Length 141 m; draft 4.7 m.

Type: Ship. MMSI: 224471000.

Date/timePositionNaut miles runAvg speedWind from/ knotsBaromVisibWave heightAir tempDewpointWater temp
2017-Dec-14 00:59N 48°54' W 005°14'510.3
2017-Dec-14 00:29N 48°52' W 005°21'510.1
2017-Dec-14 00:00N 48°49' W 005°27'5 9.7
2017-Dec-13 23:30N 48°46' W 005°33'  
2017-Dec-10 11:50N 39°19' W 009°49'3 9.4
2017-Dec-10 11:29N 39°16' W 009°49'4 9.5
2017-Dec-10 11:00N 39°11' W 009°49'5 9.8
2017-Dec-10 10:30N 39°06' W 009°50'5 9.6
2017-Dec-10 10:00N 39°01' W 009°50'5 9.6
2017-Dec-10 09:30N 38°57' W 009°50'5 9.6
2017-Dec-10 09:00N 38°52' W 009°50'5 9.9
2017-Dec-10 08:30N 38°47' W 009°50'5 9.7
2017-Dec-10 08:00N 38°42' W 009°50'5 9.8
2017-Dec-10 07:30N 38°37' W 009°48'5 9.8
2017-Dec-10 07:00N 38°32' W 009°47'5 9.6
2017-Dec-10 06:30N 38°28' W 009°45'5 9.6
2017-Dec-10 06:00N 38°23' W 009°44'5 9.8
2017-Dec-10 05:30N 38°18' W 009°43'5 9.9
2017-Dec-10 04:59N 38°13' W 009°42'7 9.7
2017-Dec-10 04:17N 38°06' W 009°40'  
2017-Dec-04 10:30N 36°45' E 014°21'5 9.1
2017-Dec-04 10:00N 36°43' E 014°27'5 9.7
2017-Dec-04 09:29N 36°41' E 014°32'  

Dump ship's entire track history